createdAt,value
2023-05-23T00:00:44.817Z,98465.00
2023-05-23T00:03:31.521Z,98461.03
2023-05-23T00:06:21.433Z,98464.91
2023-05-23T00:09:06.939Z,98465.19
2023-05-23T00:11:52.215Z,98468.38
2023-05-23T00:14:37.492Z,98479.94
2023-05-23T00:17:25.455Z,98477.75
2023-05-23T00:20:12.192Z,98482.50
2023-05-23T00:22:58.767Z,98483.28
2023-05-23T00:25:53.001Z,98473.84
2023-05-23T00:28:39.086Z,98467.50
2023-05-23T00:31:24.684Z,98477.75
2023-05-23T00:34:10.289Z,98477.81
2023-05-23T00:36:55.401Z,98467.50
2023-05-23T00:39:41.355Z,98461.91
2023-05-23T00:42:26.636Z,98460.31
2023-05-23T00:45:12.482Z,98452.88
2023-05-23T00:47:59.506Z,98450.88
2023-05-23T00:50:45.847Z,98457.13
2023-05-23T00:53:31.549Z,98455.66
2023-05-23T00:56:17.237Z,98454.91
2023-05-23T00:59:03.673Z,98462.78
2023-05-23T01:01:51.176Z,98473.06
2023-05-23T01:04:37.108Z,98471.53
2023-05-23T01:07:22.364Z,98468.31
2023-05-23T01:10:09.258Z,98473.84
2023-05-23T01:13:12.705Z,98481.84
2023-05-23T01:16:07.471Z,98485.41
2023-05-23T01:19:09.209Z,98489.69
2023-05-23T01:21:55.738Z,98500.00
2023-05-23T01:25:02.584Z,98507.97
2023-05-23T01:28:07.877Z,98504.00
2023-05-23T01:30:57.505Z,98499.78
2023-05-23T01:33:44.185Z,98487.47
2023-05-23T01:36:29.868Z,98498.56
2023-05-23T01:39:15.342Z,98480.03
2023-05-23T01:42:00.787Z,98479.97
2023-05-23T01:44:47.665Z,98486.63
2023-05-23T01:47:34.085Z,98484.69
2023-05-23T01:50:20.446Z,98482.44
2023-05-23T01:53:08.450Z,98489.88
2023-05-23T01:55:54.996Z,98485.22
2023-05-23T01:58:41.350Z,98481.94
2023-05-23T02:01:26.903Z,98472.50
2023-05-23T02:04:12.210Z,98468.06
2023-05-23T02:06:57.543Z,98463.69
2023-05-23T02:09:42.925Z,98462.53
2023-05-23T02:12:28.323Z,98451.09
2023-05-23T02:15:13.724Z,98460.47
2023-05-23T02:17:59.246Z,98454.66
2023-05-23T02:20:45.447Z,98442.72
2023-05-23T02:23:31.287Z,98430.84
2023-05-23T02:26:17.934Z,98441.59
2023-05-23T02:29:03.510Z,98444.44
2023-05-23T02:31:49.232Z,98440.53
2023-05-23T02:34:34.592Z,98439.41
2023-05-23T02:37:20.450Z,98430.56
2023-05-23T02:40:10.296Z,98425.91
2023-05-23T02:42:57.364Z,98416.91
2023-05-23T02:45:43.255Z,98404.16
2023-05-23T02:48:28.759Z,98402.63
2023-05-23T02:51:14.022Z,98406.94
2023-05-23T02:53:59.474Z,98399.75
2023-05-23T02:56:46.768Z,98406.16
2023-05-23T02:59:32.258Z,98398.97
2023-05-23T03:02:18.234Z,98400.09
2023-05-23T03:05:06.323Z,98388.94
2023-05-23T03:07:54.677Z,98385.28
2023-05-23T03:10:40.285Z,98378.94
2023-05-23T03:13:25.630Z,98383.59
2023-05-23T03:16:12.528Z,98380.41
2023-05-23T03:18:57.921Z,98381.09
2023-05-23T03:21:44.358Z,98377.88
2023-05-23T03:24:29.824Z,98383.75
2023-05-23T03:27:15.221Z,98384.09
2023-05-23T03:30:00.466Z,98382.44
2023-05-23T03:32:46.701Z,98380.44
2023-05-23T03:35:32.089Z,98385.16
2023-05-23T03:38:17.446Z,98382.72
2023-05-23T03:41:03.342Z,98378.72
2023-05-23T03:43:50.680Z,98373.94
2023-05-23T03:46:36.354Z,98379.06
2023-05-23T03:49:21.760Z,98386.97
2023-05-23T03:52:07.321Z,98402.38
2023-05-23T03:54:53.321Z,98397.59
2023-05-23T03:57:39.121Z,98402.72
2023-05-23T04:00:25.063Z,98410.59
2023-05-23T04:03:15.360Z,98413.38
2023-05-23T04:06:01.683Z,98418.50
2023-05-23T04:08:47.241Z,98423.59
2023-05-23T04:11:32.767Z,98419.63
2023-05-23T04:14:20.373Z,98415.63
2023-05-23T04:17:09.225Z,98411.19
2023-05-23T04:19:55.591Z,98406.44
2023-05-23T04:22:41.474Z,98416.66
2023-05-23T04:25:27.371Z,98422.97
2023-05-23T04:28:46.656Z,98419.00
2023-05-23T04:31:34.106Z,98420.97
2023-05-23T04:34:22.377Z,98424.88
2023-05-23T04:37:09.791Z,98423.66
2023-05-23T04:39:55.305Z,98430.66
2023-05-23T04:42:54.525Z,98424.25
2023-05-23T04:45:55.336Z,98425.38
2023-05-23T04:49:01.572Z,98427.97
2023-05-23T04:51:47.465Z,98427.50
2023-05-23T04:54:44.759Z,98432.09
2023-05-23T04:57:30.900Z,98428.81
2023-05-23T05:00:17.658Z,98429.16
2023-05-23T05:03:06.353Z,98428.59
2023-05-23T05:05:52.571Z,98434.53
2023-05-23T05:08:40.750Z,98433.72
2023-05-23T05:11:27.251Z,98428.97
2023-05-23T05:14:13.627Z,98422.63
2023-05-23T05:16:59.332Z,98426.97
2023-05-23T05:19:52.196Z,98430.53
2023-05-23T05:22:42.608Z,98425.75
2023-05-23T05:25:32.131Z,98432.53
2023-05-23T05:28:17.793Z,98429.75
2023-05-23T05:31:07.043Z,98438.06
2023-05-23T05:33:54.549Z,98436.06
2023-05-23T05:36:46.919Z,98428.19
2023-05-23T05:39:34.330Z,98428.97
2023-05-23T05:42:19.494Z,98437.69
2023-05-23T05:45:05.540Z,98432.16
2023-05-23T05:47:52.320Z,98430.59
2023-05-23T05:50:39.894Z,98437.69
2023-05-23T05:53:26.930Z,98438.94
2023-05-23T05:56:13.639Z,98446.03
2023-05-23T05:58:59.107Z,98448.03
2023-05-23T06:01:45.618Z,98446.78
2023-05-23T06:04:32.461Z,98454.34
2023-05-23T06:07:17.738Z,98455.59
2023-05-23T06:10:04.364Z,98461.13
2023-05-23T06:12:49.747Z,98457.13
2023-05-23T06:15:35.544Z,98455.22
2023-05-23T06:18:21.038Z,98463.09
2023-05-23T06:21:07.797Z,98466.69
2023-05-23T06:23:55.079Z,98469.47
2023-05-23T06:26:40.312Z,98467.53
2023-05-23T06:29:26.976Z,98471.09
2023-05-23T06:32:13.992Z,98473.44
2023-05-23T06:34:59.178Z,98481.31
2023-05-23T06:37:45.973Z,98476.63
2023-05-23T06:40:31.362Z,98478.63
2023-05-23T06:43:17.459Z,98479.88
2023-05-23T06:46:06.850Z,98492.50
2023-05-23T06:49:02.575Z,98487.72
2023-05-23T06:51:52.928Z,98494.16
2023-05-23T06:54:38.325Z,98498.94
2023-05-23T06:57:23.408Z,98497.38
2023-05-23T07:00:11.602Z,98497.38
2023-05-23T07:03:07.218Z,98502.91
2023-05-23T07:05:53.047Z,98499.28
2023-05-23T07:08:40.975Z,98496.50
2023-05-23T07:11:26.557Z,98495.41
2023-05-23T07:14:16.190Z,98495.75
2023-05-23T07:17:04.181Z,98504.84
2023-05-23T07:19:50.080Z,98502.06
2023-05-23T07:22:37.776Z,98504.84
2023-05-23T07:25:23.492Z,98508.03
2023-05-23T07:28:09.411Z,98501.72
2023-05-23T07:30:55.241Z,98505.69
2023-05-23T07:33:40.940Z,98514.81
2023-05-23T07:36:29.870Z,98514.03
2023-05-23T07:39:15.586Z,98512.03
2023-05-23T07:42:00.985Z,98509.69
2023-05-23T07:44:47.297Z,98509.34
2023-05-23T07:47:33.019Z,98505.81
2023-05-23T07:50:18.921Z,98509.34
2023-05-23T07:53:04.178Z,98514.13
2023-05-23T07:55:50.067Z,98514.91
2023-05-23T07:58:36.391Z,98509.78
2023-05-23T08:01:22.250Z,98510.59
2023-05-23T08:04:24.958Z,98516.13
2023-05-23T08:07:12.902Z,98520.88
2023-05-23T08:10:06.298Z,98524.88
2023-05-23T08:12:52.013Z,98521.69
2023-05-23T08:15:38.520Z,98517.34
2023-05-23T08:18:32.467Z,98522.88
2023-05-23T08:21:17.801Z,98517.34
2023-05-23T08:24:03.600Z,98517.34
2023-05-23T08:26:50.494Z,98515.78
2023-05-23T08:29:37.348Z,98518.22
2023-05-23T08:32:24.533Z,98530.50
2023-05-23T08:35:11.070Z,98527.72
2023-05-23T08:37:59.977Z,98536.06
2023-05-23T08:40:51.142Z,98537.63
2023-05-23T08:43:36.850Z,98549.84
2023-05-23T08:46:23.284Z,98553.06
2023-05-23T08:49:10.806Z,98545.19
2023-05-23T08:52:03.701Z,98557.06
2023-05-23T08:54:51.592Z,98554.63
2023-05-23T08:57:38.350Z,98551.50
2023-05-23T09:00:41.233Z,98554.28
2023-05-23T09:03:27.447Z,98555.47
2023-05-23T09:06:37.535Z,98558.59
2023-05-23T09:09:23.638Z,98553.06
2023-05-23T09:12:10.382Z,98559.38
2023-05-23T09:14:56.402Z,98555.47
2023-05-23T09:17:45.456Z,98559.81
2023-05-23T09:20:31.047Z,98571.34
2023-05-23T09:23:21.740Z,98576.47
2023-05-23T09:26:12.065Z,98569.34
2023-05-23T09:28:59.586Z,98572.13
2023-05-23T09:31:45.125Z,98576.47
2023-05-23T09:34:30.885Z,98587.13
2023-05-23T09:37:19.112Z,98589.13
2023-05-23T09:40:10.548Z,98600.31
2023-05-23T09:43:04.064Z,98597.53
2023-05-23T09:45:49.284Z,98598.31
2023-05-23T09:48:35.845Z,98592.00
2023-05-23T09:51:23.134Z,98606.66
2023-05-23T09:54:10.231Z,98605.41
2023-05-23T09:56:57.745Z,98608.19
2023-05-23T09:59:54.443Z,98600.31
2023-05-23T10:03:12.948Z,98607.50
2023-05-23T10:06:01.808Z,98618.94
2023-05-23T10:08:55.780Z,98604.28
2023-05-23T10:11:59.969Z,98609.13
2023-05-23T10:14:52.086Z,98616.69
2023-05-23T10:17:57.371Z,98624.13
2023-05-23T10:20:47.706Z,98624.94
2023-05-23T10:23:34.057Z,98613.03
2023-05-23T10:26:20.389Z,98622.59
2023-05-23T10:29:07.645Z,98625.38
2023-05-23T10:31:54.434Z,98632.91
2023-05-23T10:35:04.545Z,98632.97
2023-05-23T10:37:57.138Z,98645.66
2023-05-23T10:41:00.697Z,98637.34
2023-05-23T10:43:55.238Z,98638.97
2023-05-23T10:46:58.884Z,98648.06
2023-05-23T10:49:46.880Z,98640.94
2023-05-23T10:52:41.180Z,98641.41
2023-05-23T10:55:28.113Z,98644.59
2023-05-23T10:58:18.944Z,98636.69
2023-05-23T11:01:13.949Z,98647.38
2023-05-23T11:04:05.798Z,98639.41
2023-05-23T11:06:51.037Z,98643.03
2023-05-23T11:09:37.179Z,98644.59
2023-05-23T11:12:38.315Z,98637.16
2023-05-23T11:15:24.012Z,98651.34
2023-05-23T11:18:09.346Z,98645.78
2023-05-23T11:20:55.134Z,98653.34
2023-05-23T11:23:43.767Z,98647.03
2023-05-23T11:26:31.088Z,98647.91
2023-05-23T11:29:16.647Z,98652.63
2023-05-23T11:32:16.038Z,98647.09
2023-05-23T11:35:10.785Z,98649.88
2023-05-23T11:37:57.687Z,98652.63
2023-05-23T11:40:45.762Z,98650.66
2023-05-23T11:43:31.365Z,98653.44
2023-05-23T11:46:16.898Z,98645.13
2023-05-23T11:49:02.382Z,98649.09
2023-05-23T11:51:47.818Z,98644.31
2023-05-23T11:54:33.976Z,98639.22
2023-05-23T11:57:19.588Z,98640.41
2023-05-23T12:00:09.019Z,98640.41
2023-05-23T12:02:54.649Z,98630.09
2023-05-23T12:05:39.752Z,98635.31
2023-05-23T12:08:27.866Z,98637.63
2023-05-23T12:11:13.821Z,98633.69
2023-05-23T12:14:01.913Z,98630.09
2023-05-23T12:16:47.460Z,98629.69
2023-05-23T12:19:33.387Z,98626.91
2023-05-23T12:22:25.743Z,98628.13
2023-05-23T12:25:11.767Z,98626.53
2023-05-23T12:27:57.300Z,98629.31
2023-05-23T12:30:43.434Z,98637.28
2023-05-23T12:33:28.800Z,98638.09
2023-05-23T12:36:25.367Z,98632.97
2023-05-23T12:39:10.780Z,98640.06
2023-05-23T12:42:08.401Z,98644.78
2023-05-23T12:44:54.283Z,98640.00
2023-05-23T12:47:39.543Z,98638.41
2023-05-23T12:50:24.701Z,98640.41
2023-05-23T12:53:10.332Z,98637.28
2023-05-23T12:55:55.538Z,98636.09
2023-05-23T12:58:40.778Z,98647.19
2023-05-23T13:01:26.076Z,98652.72
2023-05-23T13:04:11.229Z,98637.63
2023-05-23T13:06:56.469Z,98646.41
2023-05-23T13:09:41.638Z,98655.50
2023-05-23T13:12:27.013Z,98656.28
2023-05-23T13:15:12.585Z,98653.94
2023-05-23T13:17:58.289Z,98656.69
2023-05-23T13:20:43.926Z,98659.94
2023-05-23T13:23:29.590Z,98657.16
2023-05-23T13:26:15.384Z,98656.34
2023-05-23T13:29:01.009Z,98659.94
2023-05-23T13:31:47.087Z,98670.56
2023-05-23T13:34:35.180Z,98661.47
2023-05-23T13:37:20.469Z,98674.91
2023-05-23T13:40:06.395Z,98676.47
2023-05-23T13:42:51.944Z,98687.56
2023-05-23T13:45:37.381Z,98691.13
2023-05-23T13:48:22.705Z,98686.38
2023-05-23T13:51:08.107Z,98683.59
2023-05-23T13:53:53.273Z,98688.69
2023-05-23T13:56:39.816Z,98695.81
2023-05-23T13:59:26.821Z,98692.28
2023-05-23T14:02:12.675Z,98693.03
2023-05-23T14:04:58.987Z,98692.28
2023-05-23T14:07:47.153Z,98695.81
2023-05-23T14:10:35.750Z,98702.16
2023-05-23T14:13:21.830Z,98705.69
2023-05-23T14:16:07.414Z,98706.50
2023-05-23T14:18:52.809Z,98710.81
2023-05-23T14:21:38.702Z,98704.84
2023-05-23T14:24:24.340Z,98707.63
2023-05-23T14:27:11.218Z,98708.41
2023-05-23T14:29:56.979Z,98713.94
2023-05-23T14:32:42.558Z,98715.06
2023-05-23T14:35:29.942Z,98711.09
2023-05-23T14:38:14.897Z,98720.19
2023-05-23T14:41:00.350Z,98724.53
2023-05-23T14:43:46.096Z,98723.75
2023-05-23T14:46:31.393Z,98729.22
2023-05-23T14:49:17.658Z,98728.72
2023-05-23T14:52:02.933Z,98727.50
2023-05-23T14:54:48.469Z,98734.28
2023-05-23T14:57:33.560Z,98729.50
2023-05-23T15:00:19.562Z,98727.94
2023-05-23T15:03:05.584Z,98731.50
2023-05-23T15:05:50.965Z,98731.50
2023-05-23T15:08:37.229Z,98737.03
2023-05-23T15:11:22.815Z,98735.03
2023-05-23T15:14:08.051Z,98738.59
2023-05-23T15:16:54.001Z,98739.72
2023-05-23T15:19:42.829Z,98738.53
2023-05-23T15:25:16.845Z,98745.63
2023-05-23T15:28:02.143Z,98744.84
2023-05-23T15:30:47.449Z,98745.19
2023-05-23T15:33:32.768Z,98746.44
2023-05-23T15:36:18.012Z,98738.09
2023-05-23T15:39:04.837Z,98749.56
2023-05-23T15:41:50.004Z,98744.00
2023-05-23T15:44:35.365Z,98741.66
2023-05-23T15:47:20.940Z,98749.19
2023-05-23T15:50:07.134Z,98757.88
2023-05-23T15:52:53.370Z,98748.34
2023-05-23T15:55:41.842Z,98754.31
2023-05-23T15:58:27.780Z,98754.25
2023-05-23T16:01:12.941Z,98758.50
2023-05-23T16:03:58.159Z,98772.31
2023-05-23T16:06:43.375Z,98768.34
2023-05-23T16:09:28.681Z,98770.25
2023-05-23T16:12:13.839Z,98768.94
2023-05-23T16:14:59.282Z,98763.31
2023-05-23T16:17:44.636Z,98764.03
2023-05-23T16:20:29.869Z,98772.78
2023-05-23T16:23:15.177Z,98773.91
2023-05-23T16:26:00.693Z,98778.25
2023-05-23T16:28:45.905Z,98770.28
2023-05-23T16:31:31.475Z,98767.88
2023-05-23T16:34:17.077Z,98769.34
2023-05-23T16:37:02.726Z,98766.13
2023-05-23T16:39:47.901Z,98772.00
2023-05-23T16:42:33.175Z,98773.59
2023-05-23T16:45:18.261Z,98777.91
2023-05-23T16:48:03.676Z,98777.50
2023-05-23T16:50:49.462Z,98765.50
2023-05-23T16:53:34.792Z,98780.97
2023-05-23T16:56:20.109Z,98774.19
2023-05-23T16:59:06.068Z,98776.91
2023-05-23T17:01:51.208Z,98772.91
2023-05-23T17:04:36.814Z,98789.56
2023-05-23T17:07:22.021Z,98779.69
2023-05-23T17:10:09.106Z,98795.88
2023-05-23T17:12:55.201Z,98807.81
2023-05-23T17:15:47.924Z,98790.63
2023-05-23T17:18:36.768Z,98790.97
2023-05-23T17:21:24.168Z,98803.56
2023-05-23T17:24:10.292Z,98806.69
2023-05-23T17:26:56.717Z,98813.44
2023-05-23T17:29:42.486Z,98819.44
2023-05-23T17:32:28.982Z,98821.88
2023-05-23T17:35:15.494Z,98830.19
2023-05-23T17:38:23.928Z,98846.41
2023-05-23T17:41:09.610Z,98838.53
2023-05-23T17:43:54.834Z,98850.06
2023-05-23T17:46:40.942Z,98849.28
2023-05-23T17:49:26.853Z,98861.25
2023-05-23T17:52:14.912Z,98856.56
2023-05-23T17:55:01.255Z,98861.78
2023-05-23T17:57:46.886Z,98863.41
2023-05-23T18:00:32.300Z,98861.88
2023-05-23T18:03:17.807Z,98859.50
2023-05-23T18:06:03.418Z,98866.25
2023-05-23T18:08:51.332Z,98867.91
2023-05-23T18:11:38.265Z,98876.25
2023-05-23T18:14:23.771Z,98889.00
2023-05-23T18:17:10.272Z,98881.09
2023-05-23T18:19:55.684Z,98880.31
2023-05-23T18:22:41.414Z,98883.88
2023-05-23T18:25:29.607Z,98885.97
2023-05-23T18:28:15.230Z,98894.34
2023-05-23T18:31:01.726Z,98892.00
2023-05-23T18:33:47.131Z,98905.09
2023-05-23T18:36:34.515Z,98904.75
2023-05-23T18:39:22.535Z,98912.28
2023-05-23T18:42:08.421Z,98915.50
2023-05-23T18:44:54.027Z,98913.94
2023-05-23T18:47:39.852Z,98923.47
2023-05-23T18:50:25.991Z,98927.47
2023-05-23T18:53:11.707Z,98922.31
2023-05-23T18:55:57.780Z,98931.88
2023-05-23T18:58:45.372Z,98930.31
2023-05-23T19:01:32.125Z,98941.84
2023-05-23T19:04:18.533Z,98949.38
2023-05-23T19:07:04.280Z,98949.81
2023-05-23T19:09:49.654Z,98948.22
2023-05-23T19:12:35.168Z,98955.78
2023-05-23T19:15:20.496Z,98960.97
2023-05-23T19:18:06.344Z,98960.97
2023-05-23T19:20:52.091Z,98971.31
2023-05-23T19:23:40.447Z,98970.53
2023-05-23T19:26:26.778Z,98975.28
2023-05-23T19:29:12.438Z,98986.81
2023-05-23T19:31:58.283Z,98994.34
2023-05-23T19:34:44.179Z,98998.31
2023-05-23T19:37:29.569Z,99005.84
2023-05-23T19:40:15.668Z,99007.84
2023-05-23T19:43:01.821Z,99013.03
2023-05-23T19:45:47.027Z,99009.47
2023-05-23T19:48:32.406Z,99019.78
2023-05-23T19:51:17.735Z,99015.00
2023-05-23T19:54:03.177Z,99030.88
2023-05-23T19:56:48.844Z,99032.88
2023-05-23T19:59:34.197Z,99040.84
2023-05-23T20:02:19.610Z,99040.06
2023-05-23T20:05:05.513Z,99035.72
2023-05-23T20:07:52.677Z,99046.03
2023-05-23T20:10:38.176Z,99050.03
2023-05-23T20:13:23.427Z,99049.25
2023-05-23T20:16:09.567Z,99051.22
2023-05-23T20:18:55.064Z,99059.56
2023-05-23T20:21:40.534Z,99064.31
2023-05-23T20:24:26.187Z,99068.31
2023-05-23T20:27:11.626Z,99067.50
2023-05-23T20:29:57.001Z,99075.06
2023-05-23T20:32:42.809Z,99076.28
2023-05-23T20:35:28.767Z,99081.81
2023-05-23T20:38:15.090Z,99080.59
2023-05-23T20:41:06.720Z,99079.06
2023-05-23T20:43:52.214Z,99079.06
2023-05-23T20:46:40.291Z,99077.91
2023-05-23T20:49:26.938Z,99088.19
2023-05-23T20:52:12.261Z,99087.44
2023-05-23T20:54:57.609Z,99092.97
2023-05-23T20:57:43.198Z,99090.97
2023-05-23T21:00:28.908Z,99102.50
2023-05-23T21:03:14.585Z,99095.38
2023-05-23T21:06:00.158Z,99098.16
2023-05-23T21:08:45.473Z,99107.69
2023-05-23T21:11:30.787Z,99104.94
2023-05-23T21:14:16.112Z,99102.56
2023-05-23T21:17:01.599Z,99112.44
2023-05-23T21:19:46.660Z,99105.34
2023-05-23T21:22:32.003Z,99101.00
2023-05-23T21:25:17.465Z,99101.00
2023-05-23T21:28:03.079Z,99102.97
2023-05-23T21:30:48.683Z,99104.97
2023-05-23T21:33:33.972Z,99098.66
2023-05-23T21:36:19.215Z,99098.66
2023-05-23T21:39:04.390Z,99095.88
2023-05-23T21:41:49.729Z,99098.66
2023-05-23T21:44:34.994Z,99101.84
2023-05-23T21:47:21.341Z,99107.38
2023-05-23T21:50:07.488Z,99101.06
2023-05-23T21:52:53.093Z,99103.03
2023-05-23T21:55:38.648Z,99105.81
2023-05-23T21:58:23.986Z,99104.25
2023-05-23T22:01:09.378Z,99104.25
2023-05-23T22:03:55.016Z,99102.69
2023-05-23T22:06:41.204Z,99105.47
2023-05-23T22:09:26.776Z,99099.13
2023-05-23T22:12:13.633Z,99105.09
2023-05-23T22:14:59.220Z,99101.91
2023-05-23T22:17:46.038Z,99111.41
2023-05-23T22:20:34.200Z,99105.09
2023-05-23T22:23:19.706Z,99103.88
2023-05-23T22:26:05.325Z,99105.50
2023-05-23T22:28:50.723Z,99110.63
2023-05-23T22:31:36.017Z,99111.41
2023-05-23T22:34:21.444Z,99115.41
2023-05-23T22:37:07.383Z,99123.72
2023-05-23T22:39:53.060Z,99122.91
2023-05-23T22:42:39.956Z,99118.59
2023-05-23T22:45:25.275Z,99125.69
2023-05-23T22:48:11.454Z,99128.47
2023-05-23T22:50:57.138Z,99126.91
2023-05-23T22:53:43.370Z,99117.81
2023-05-23T22:56:28.917Z,99119.81
2023-05-23T22:59:14.322Z,99119.81
2023-05-23T23:01:59.708Z,99112.69
2023-05-23T23:04:44.981Z,99121.78
2023-05-23T23:07:30.832Z,99121.78
2023-05-23T23:10:16.266Z,99115.44
2023-05-23T23:13:01.481Z,99115.44
2023-05-23T23:15:49.693Z,99115.44
2023-05-23T23:18:35.196Z,99108.34
2023-05-23T23:21:21.075Z,99097.25
2023-05-23T23:24:07.933Z,99095.25
2023-05-23T23:26:53.161Z,99091.69
2023-05-23T23:29:38.533Z,99089.72
2023-05-23T23:32:24.035Z,99097.25
2023-05-23T23:35:09.680Z,99090.91
2023-05-23T23:37:55.478Z,99092.88
2023-05-23T23:40:44.347Z,99095.66
2023-05-23T23:43:30.802Z,99090.13
2023-05-23T23:46:18.774Z,99097.25
2023-05-23T23:49:04.348Z,99090.13
2023-05-23T23:51:49.620Z,99104.00
2023-05-23T23:54:34.962Z,99103.22
2023-05-23T23:57:20.381Z,99109.16
